Time;durP1;ratioP1;P1;durP2;ratioP2;P2;SDS_P1;SDS_P2;PMS_P1;PMS_P2;Temp;Humidity;BMP_temperature;BMP_pressure;BME280_temperature;BME280_humidity;BME280_pressure;Samples;Min_cycle;Max_cycle;Signal;HPM_P1;HPM_P2
2021/11/01 00:01:56;;;;;;;1.93;1.30;;;10.70;98.00;;;;;;6184589;23;20404;-70
2021/11/01 00:04:23;;;;;;;1.50;1.20;;;10.60;98.00;;;;;;6184494;23;20404;-71
2021/11/01 00:06:50;;;;;;;2.80;1.67;;;10.60;98.00;;;;;;6184527;23;20397;-70
2021/11/01 00:09:18;;;;;;;1.20;1.17;;;10.70;98.00;;;;;;6184033;23;20842;-69
2021/11/01 00:11:46;;;;;;;1.40;1.27;;;10.70;98.00;;;;;;6184142;23;20403;-70
2021/11/01 00:14:13;;;;;;;1.20;1.20;;;10.70;98.00;;;;;;6183582;23;20404;-70
2021/11/01 00:16:40;;;;;;;1.30;1.10;;;10.80;98.00;;;;;;6183413;23;20487;-70
2021/11/01 00:19:07;;;;;;;1.23;1.20;;;10.70;98.00;;;;;;6183752;23;20497;-70
2021/11/01 00:24:18;;;;;;;1.37;1.27;;;10.80;98.00;;;;;;6183808;23;20782;-70
2021/11/01 00:26:45;;;;;;;1.47;1.37;;;10.80;98.00;;;;;;6183817;23;20420;-70
2021/11/01 00:29:12;;;;;;;1.67;1.37;;;10.80;98.00;;;;;;6184230;23;20463;-70
2021/11/01 00:31:39;;;;;;;1.20;1.07;;;10.90;98.00;;;;;;6184026;23;20405;-70
2021/11/01 00:34:07;;;;;;;1.20;1.13;;;10.90;98.00;;;;;;6184159;23;20407;-70
2021/11/01 00:36:34;;;;;;;1.57;1.20;;;11.00;98.00;;;;;;6183982;23;20446;-70
2021/11/01 00:39:02;;;;;;;1.30;1.20;;;11.00;98.00;;;;;;6184221;23;20403;-71
2021/11/01 00:41:31;;;;;;;1.77;1.60;;;11.00;98.00;;;;;;6184414;23;20421;-70
2021/11/01 00:44:00;;;;;;;2.10;1.60;;;11.00;98.00;;;;;;6182460;23;20399;-70
2021/11/01 00:46:27;;;;;;;1.20;1.10;;;11.10;98.00;;;;;;6193231;23;20435;-69
2021/11/01 00:48:54;;;;;;;1.33;1.17;;;11.10;98.00;;;;;;6213987;23;21166;-70
2021/11/01 00:51:22;;;;;;;1.60;1.20;;;11.20;98.00;;;;;;6213676;23;20419;-70
2021/11/01 00:53:49;;;;;;;1.63;1.27;;;11.10;98.00;;;;;;6214257;23;20401;-69
2021/11/01 00:56:18;;;;;;;2.60;1.67;;;11.10;98.00;;;;;;6214501;23;20510;-70
2021/11/01 00:58:46;;;;;;;3.10;1.80;;;11.00;98.00;;;;;;6214250;23;20465;-70
2021/11/01 01:01:16;;;;;;;1.40;1.23;;;11.00;98.00;;;;;;6214173;23;20396;-69
2021/11/01 01:03:43;;;;;;;1.20;1.17;;;11.00;98.00;;;;;;6188069;23;20474;-70
2021/11/01 01:06:11;;;;;;;1.40;1.23;;;10.90;98.00;;;;;;6215967;23;20845;-71
2021/11/01 01:08:38;;;;;;;1.20;1.00;;;10.80;98.00;;;;;;6216054;23;20446;-70
2021/11/01 01:11:05;;;;;;;2.07;1.50;;;10.60;98.00;;;;;;6215981;23;20463;-70
2021/11/01 01:13:36;;;;;;;1.30;1.17;;;10.60;98.00;;;;;;6190026;23;20412;-70
2021/11/01 01:16:11;;;;;;;2.13;1.97;;;10.60;98.00;;;;;;6216190;23;20436;-69
2021/11/01 01:18:39;;;;;;;1.60;1.40;;;10.70;98.00;;;;;;6216057;23;20404;-70
2021/11/01 01:23:54;;;;;;;1.87;1.40;;;10.80;98.00;;;;;;6214345;23;20481;-70
2021/11/01 01:26:22;;;;;;;3.13;1.67;;;10.90;98.00;;;;;;6216001;23;20486;-70
2021/11/01 01:28:49;;;;;;;1.40;1.13;;;10.80;98.00;;;;;;6213047;23;20418;-71
2021/11/01 01:31:18;;;;;;;1.40;1.33;;;10.80;98.00;;;;;;6215987;23;20458;-71
2021/11/01 01:33:46;;;;;;;2.07;1.50;;;10.80;98.00;;;;;;6215742;23;20457;-70
2021/11/01 01:36:13;;;;;;;1.87;1.27;;;10.70;98.00;;;;;;6215528;23;20396;-70
2021/11/01 01:38:40;;;;;;;1.40;1.40;;;10.70;98.00;;;;;;6215873;23;20697;-70
2021/11/01 01:41:14;;;;;;;1.53;1.10;;;10.70;98.00;;;;;;6215473;23;20949;-70
2021/11/01 01:43:45;;;;;;;1.20;1.10;;;10.80;98.00;;;;;;6215337;23;20403;-70
2021/11/01 01:46:12;;;;;;;1.60;1.40;;;10.80;98.00;;;;;;6215200;23;20423;-70
2021/11/01 01:48:41;;;;;;;1.53;1.30;;;10.90;98.00;;;;;;6215841;23;20724;-70
2021/11/01 01:51:08;;;;;;;2.23;2.03;;;11.00;98.00;;;;;;6215528;23;20410;-70
2021/11/01 01:53:36;;;;;;;1.43;1.33;;;11.00;98.00;;;;;;6215890;23;20453;-70
2021/11/01 01:56:04;;;;;;;1.33;1.10;;;11.10;98.00;;;;;;6215461;23;20399;-71
2021/11/01 01:58:45;;;;;;;1.50;1.20;;;11.00;98.00;;;;;;6215446;23;20479;-70
2021/11/01 02:01:15;;;;;;;1.77;1.40;;;10.90;98.00;;;;;;6215338;23;20407;-71
2021/11/01 02:03:47;;;;;;;2.27;1.30;;;10.80;98.00;;;;;;6188825;23;20421;-70
2021/11/01 02:06:18;;;;;;;1.40;1.20;;;10.80;98.00;;;;;;6215603;23;20402;-70
2021/11/01 02:08:53;;;;;;;1.50;1.40;;;10.80;98.00;;;;;;6215326;23;20407;-70
2021/11/01 02:11:27;;;;;;;2.70;2.13;;;10.90;98.00;;;;;;6215711;23;20396;-70
2021/11/01 02:13:58;;;;;;;1.57;1.37;;;10.90;98.00;;;;;;6215591;23;20400;-70
2021/11/01 02:16:29;;;;;;;1.20;1.10;;;10.90;98.00;;;;;;6215104;23;20930;-69
2021/11/01 02:18:59;;;;;;;1.43;1.40;;;11.10;98.00;;;;;;6215220;23;20926;-71
2021/11/01 02:21:38;;;;;;;2.93;1.70;;;11.10;98.00;;;;;;6215247;23;20454;-70
2021/11/01 02:24:07;;;;;;;1.30;1.13;;;11.10;98.00;;;;;;6189573;23;20462;-71
2021/11/01 02:26:40;;;;;;;2.73;1.50;;;11.20;98.00;;;;;;6215650;23;20463;-70
2021/11/01 02:29:08;;;;;;;1.20;1.20;;;11.20;98.00;;;;;;6215151;23;20887;-70
2021/11/01 02:31:35;;;;;;;1.40;1.30;;;11.20;98.00;;;;;;6215411;23;20407;-71
2021/11/01 02:34:03;;;;;;;1.53;1.20;;;11.30;98.00;;;;;;6215332;23;20403;-69
2021/11/01 02:36:32;;;;;;;1.63;1.17;;;11.30;98.00;;;;;;6215603;23;20407;-71
2021/11/01 02:39:00;;;;;;;1.30;1.10;;;11.40;98.00;;;;;;6189165;23;20403;-70
2021/11/01 02:41:31;;;;;;;1.30;1.30;;;11.40;98.00;;;;;;6215176;23;20405;-70
2021/11/01 02:44:00;;;;;;;2.80;1.40;;;11.50;98.00;;;;;;6215352;23;20463;-70
2021/11/01 02:46:28;;;;;;;1.17;1.00;;;11.50;98.00;;;;;;6214968;23;20426;-70
2021/11/01 02:48:56;;;;;;;1.50;1.17;;;11.50;98.00;;;;;;6188688;23;20746;-70
2021/11/01 02:51:26;;;;;;;1.20;1.00;;;11.60;98.00;;;;;;6215244;23;20401;-70
2021/11/01 02:53:55;;;;;;;1.10;1.07;;;11.70;98.00;;;;;;6215157;23;20401;-70
2021/11/01 02:56:23;;;;;;;1.10;0.90;;;11.80;98.00;;;;;;6214660;23;20450;-70
2021/11/01 02:58:50;;;;;;;1.10;1.00;;;12.00;98.00;;;;;;6214992;23;20427;-70
2021/11/01 03:01:20;;;;;;;1.10;1.00;;;12.00;98.00;;;;;;6214850;23;20897;-70
2021/11/01 03:03:47;;;;;;;1.13;1.10;;;12.10;98.00;;;;;;6214882;23;20417;-69
2021/11/01 03:06:19;;;;;;;1.10;1.00;;;12.00;98.00;;;;;;6215005;23;20401;-69
2021/11/01 03:08:49;;;;;;;1.10;1.00;;;12.00;98.00;;;;;;6215048;23;20451;-70
2021/11/01 03:11:17;;;;;;;1.40;1.30;;;12.00;98.00;;;;;;6214687;23;20398;-70
2021/11/01 03:13:45;;;;;;;1.10;0.93;;;12.00;98.00;;;;;;6214972;23;20761;-71
2021/11/01 03:16:13;;;;;;;1.10;1.00;;;12.00;98.00;;;;;;6215064;23;20399;-70
2021/11/01 03:19:08;;;;;;;1.10;1.00;;;12.10;98.00;;;;;;6188620;23;20926;-70
2021/11/01 03:21:42;;;;;;;1.10;1.00;;;12.10;98.00;;;;;;6214495;23;20501;-70
2021/11/01 03:24:13;;;;;;;1.17;1.07;;;12.00;98.00;;;;;;6214595;23;20458;-68
2021/11/01 03:26:42;;;;;;;1.93;1.10;;;12.00;98.00;;;;;;6214667;23;20475;-69
2021/11/01 03:29:11;;;;;;;1.10;1.00;;;11.90;98.00;;;;;;6214561;23;20456;-69
2021/11/01 03:31:41;;;;;;;1.10;0.90;;;11.80;98.00;;;;;;6214603;23;20405;-70
2021/11/01 03:34:10;;;;;;;1.87;1.47;;;11.80;98.00;;;;;;6214776;23;20403;-70
2021/11/01 03:36:38;;;;;;;1.20;1.00;;;11.80;98.00;;;;;;6214893;23;20399;-69
2021/11/01 03:39:09;;;;;;;1.10;1.00;;;11.70;98.00;;;;;;6214872;23;20757;-70
2021/11/01 03:41:36;;;;;;;1.10;0.90;;;11.70;98.00;;;;;;6189201;23;20405;-69
2021/11/01 03:44:06;;;;;;;1.10;0.90;;;11.90;98.00;;;;;;6215024;23;20419;-69
2021/11/01 03:46:40;;;;;;;1.10;0.90;;;12.00;98.00;;;;;;6214445;23;20427;-69
2021/11/01 03:49:09;;;;;;;1.10;1.00;;;11.80;98.00;;;;;;6214452;23;20394;-69
2021/11/01 03:51:45;;;;;;;1.10;1.00;;;11.90;98.00;;;;;;6214861;23;20431;-70
2021/11/01 03:54:13;;;;;;;1.10;1.10;;;11.80;98.00;;;;;;6187559;23;20420;-70
2021/11/01 03:56:44;;;;;;;1.30;1.20;;;11.80;98.00;;;;;;6214171;23;20395;-70
2021/11/01 03:59:12;;;;;;;1.10;1.00;;;11.70;98.00;;;;;;6214132;23;20514;-70
2021/11/01 04:01:40;;;;;;;1.17;1.00;;;11.70;98.00;;;;;;6214450;23;20777;-69
2021/11/01 04:04:09;;;;;;;1.10;0.90;;;11.70;98.00;;;;;;6214301;23;20412;-70
2021/11/01 04:06:38;;;;;;;1.10;1.00;;;11.70;98.00;;;;;;6214199;23;20399;-70
2021/11/01 04:09:06;;;;;;;1.10;1.00;;;11.70;98.00;;;;;;6214295;23;20759;-69
2021/11/01 04:11:33;;;;;;;1.10;0.90;;;11.60;98.00;;;;;;6214353;23;20419;-70
2021/11/01 04:14:01;;;;;;;1.20;1.00;;;11.60;98.00;;;;;;6214210;23;20403;-68
2021/11/01 04:16:35;;;;;;;1.20;1.00;;;11.50;98.00;;;;;;6214035;23;20737;-70
2021/11/01 04:19:09;;;;;;;1.10;1.00;;;11.60;98.00;;;;;;6213913;23;20475;-70
2021/11/01 04:21:38;;;;;;;1.17;1.00;;;11.60;98.00;;;;;;6189547;23;20395;-70
2021/11/01 04:24:06;;;;;;;1.10;0.90;;;11.50;98.00;;;;;;6213931;23;20403;-70
2021/11/01 04:26:33;;;;;;;1.10;1.00;;;11.40;98.00;;;;;;6214409;23;20442;-70
2021/11/01 04:29:04;;;;;;;1.17;1.00;;;11.30;98.00;;;;;;6214134;23;20400;-69
2021/11/01 04:31:33;;;;;;;1.37;1.07;;;11.20;98.00;;;;;;6214478;23;20504;-69
2021/11/01 04:34:03;;;;;;;1.10;1.00;;;11.20;98.00;;;;;;6188273;23;20395;-69
2021/11/01 04:36:30;;;;;;;1.20;0.90;;;11.20;98.00;;;;;;6214264;23;20412;-69
2021/11/01 04:39:06;;;;;;;2.80;1.10;;;11.30;98.00;;;;;;6214983;23;20991;-71
2021/11/01 04:41:38;;;;;;;1.20;0.90;;;11.30;98.00;;;;;;6216215;23;20440;-70
2021/11/01 04:44:48;;;;;;;1.20;0.97;;;11.20;98.00;;;;;;6216184;23;20412;-69
2021/11/01 04:52:59;;;;;;;1.20;0.90;;;11.30;98.00;;;;;;6226094;23;20518;-69
2021/11/01 04:55:27;;;;;;;1.20;0.93;;;11.30;98.00;;;;;;6216439;23;20396;-69
2021/11/01 04:57:56;;;;;;;1.20;1.00;;;11.30;98.00;;;;;;6216260;23;20451;-71
2021/11/01 05:00:24;;;;;;;1.10;0.90;;;11.30;98.00;;;;;;6216499;23;20875;-69
2021/11/01 05:02:58;;;;;;;1.17;0.90;;;11.30;98.00;;;;;;6215831;23;20898;-70
2021/11/01 05:05:26;;;;;;;1.17;1.00;;;11.30;98.00;;;;;;6216097;23;20397;-69
2021/11/01 05:07:54;;;;;;;1.17;1.00;;;11.30;98.00;;;;;;6216023;23;20406;-70
2021/11/01 05:10:25;;;;;;;1.20;1.00;;;11.20;98.00;;;;;;6215815;23;20458;-69
2021/11/01 05:12:56;;;;;;;1.20;1.00;;;11.10;98.00;;;;;;6216272;23;20426;-69
2021/11/01 05:15:32;;;;;;;1.20;1.00;;;11.20;98.00;;;;;;6215445;23;20487;-70
2021/11/01 05:18:03;;;;;;;1.20;1.00;;;11.10;98.00;;;;;;6190584;23;20507;-69
2021/11/01 05:20:36;;;;;;;1.20;0.90;;;11.10;98.00;;;;;;6214905;23;20504;-70
2021/11/01 05:23:12;;;;;;;1.20;0.97;;;11.00;98.00;;;;;;6214965;23;20948;-69
2021/11/01 05:25:43;;;;;;;1.20;1.10;;;11.10;98.00;;;;;;6211969;23;20420;-70
2021/11/01 05:28:20;;;;;;;1.20;1.00;;;11.20;98.00;;;;;;6215946;23;20392;-69
2021/11/01 05:30:52;;;;;;;2.03;1.00;;;11.20;98.00;;;;;;6215944;23;20721;-69
2021/11/01 05:33:38;;;;;;;1.20;0.90;;;11.00;98.00;;;;;;6215928;23;20432;-70
2021/11/01 05:36:06;;;;;;;1.10;0.90;;;11.00;98.00;;;;;;6193771;23;20401;-69
2021/11/01 05:38:34;;;;;;;1.20;1.00;;;10.90;98.00;;;;;;6215466;23;20521;-71
2021/11/01 05:41:02;;;;;;;1.20;1.00;;;10.80;98.00;;;;;;6215802;23;20447;-71
2021/11/01 05:43:31;;;;;;;1.20;1.00;;;10.70;98.00;;;;;;6215486;23;20393;-70
2021/11/01 05:45:58;;;;;;;1.20;1.00;;;10.70;98.00;;;;;;6215362;23;20431;-70
2021/11/01 05:48:25;;;;;;;1.30;1.10;;;10.70;98.00;;;;;;6215724;23;20478;-69
2021/11/01 05:50:55;;;;;;;1.20;0.90;;;10.70;98.00;;;;;;6215615;23;20478;-70
2021/11/01 05:53:24;;;;;;;1.17;1.00;;;10.60;98.00;;;;;;6215741;23;20479;-70
2021/11/01 05:55:57;;;;;;;1.20;0.90;;;10.60;98.00;;;;;;6215927;23;20431;-71
2021/11/01 05:58:29;;;;;;;1.20;0.90;;;10.60;98.00;;;;;;6215492;23;20433;-70
2021/11/01 06:01:31;;;;;;;1.20;1.00;;;10.60;98.00;;;;;;6215748;23;20729;-70
2021/11/01 06:04:01;;;;;;;1.17;1.03;;;10.60;98.00;;;;;;6214917;23;20421;-71
2021/11/01 06:06:52;;;;;;;1.13;1.00;;;10.70;98.00;;;;;;6215173;23;20435;-71
2021/11/01 06:09:32;;;;;;;1.20;1.00;;;10.80;98.00;;;;;;6194092;23;20413;-71
2021/11/01 06:14:47;;;;;;;1.20;1.00;;;10.90;98.00;;;;;;6215494;23;20463;-70
2021/11/01 06:17:18;;;;;;;1.20;1.00;;;10.90;98.00;;;;;;6216155;23;20405;-71
2021/11/01 06:19:45;;;;;;;1.20;0.90;;;10.90;98.00;;;;;;6215853;23;20427;-70
2021/11/01 06:22:14;;;;;;;1.20;1.00;;;10.90;98.00;;;;;;6215801;23;20774;-71
2021/11/01 06:24:49;;;;;;;1.17;0.90;;;10.90;98.00;;;;;;6215528;23;20466;-70
2021/11/01 06:27:17;;;;;;;1.20;1.00;;;11.00;98.00;;;;;;6214958;23;20395;-71
2021/11/01 06:32:34;;;;;;;1.20;1.00;;;10.80;98.00;;;;;;6198985;23;20419;-69
2021/11/01 06:40:49;;;;;;;1.17;0.90;;;10.80;98.00;;;;;;6214886;23;20391;-69
2021/11/01 06:43:20;;;;;;;1.20;1.00;;;10.70;98.00;;;;;;6215336;23;20478;-68
2021/11/01 06:51:39;;;;;;;1.20;1.00;;;10.70;98.00;;;;;;6215116;23;20471;-69
2021/11/01 07:16:27;;;;;;;1.20;1.00;;;10.70;98.00;;;;;;6215073;23;20861;-69
2021/11/01 07:18:59;;;;;;;1.20;1.17;;;10.80;98.00;;;;;;6214748;23;20427;-69
2021/11/01 07:21:45;;;;;;;1.13;1.00;;;10.80;98.00;;;;;;6215147;23;20425;-69
2021/11/01 07:24:35;;;;;;;1.10;0.90;;;10.80;98.00;;;;;;6214781;23;20428;-69
2021/11/01 08:28:03;;;;;;;1.20;1.00;;;11.40;98.00;;;;;;6187272;23;20421;-70
2021/11/01 08:36:25;;;;;;;1.20;1.00;;;11.00;98.00;;;;;;6214421;23;20390;-70
2021/11/01 08:39:27;;;;;;;2.70;1.30;;;11.00;98.00;;;;;;6193513;23;20450;-69
2021/11/01 08:45:08;;;;;;;1.20;1.00;;;10.90;98.00;;;;;;6215087;23;20927;-70
2021/11/01 09:01:34;;;;;;;2.60;1.10;;;11.20;98.00;;;;;;6181824;23;20843;-72
2021/11/01 09:04:09;;;;;;;1.20;1.10;;;11.20;98.00;;;;;;6181799;23;20402;-72
2021/11/01 09:06:55;;;;;;;1.40;1.10;;;11.30;98.00;;;;;;6182260;23;20402;-70
2021/11/01 09:20:21;;;;;;;1.20;1.00;;;11.50;98.00;;;;;;6181865;23;20482;-70
2021/11/01 09:25:28;;;;;;;1.20;0.90;;;11.50;98.00;;;;;;6182669;23;20391;-70
2021/11/01 09:28:05;;;;;;;1.20;1.00;;;11.50;98.00;;;;;;6183956;23;20396;-70
2021/11/01 09:36:24;;;;;;;2.07;1.83;;;11.50;98.00;;;;;;6161043;23;20422;-70
2021/11/01 09:39:18;;;;;;;1.20;1.00;;;11.50;98.00;;;;;;6183540;23;20461;-70
2021/11/01 09:41:46;;;;;;;1.20;1.00;;;11.50;98.00;;;;;;6183523;23;20417;-70
2021/11/01 09:44:17;;;;;;;1.20;1.00;;;11.60;98.00;;;;;;6183677;23;20432;-72
2021/11/01 09:46:44;;;;;;;1.20;1.00;;;11.50;98.00;;;;;;6183597;23;20432;-70
2021/11/01 09:49:17;;;;;;;1.20;1.03;;;11.60;98.00;;;;;;6182238;23;20420;-70
2021/11/01 09:51:50;;;;;;;1.20;0.90;;;11.60;98.00;;;;;;6183747;23;20402;-70
2021/11/01 09:54:25;;;;;;;1.20;0.90;;;11.60;98.00;;;;;;6183604;23;20476;-70
2021/11/01 09:57:01;;;;;;;1.20;1.00;;;11.60;98.00;;;;;;6183598;23;20891;-70
2021/11/01 09:59:31;;;;;;;1.20;1.00;;;11.70;98.00;;;;;;6183618;23;20440;-70
2021/11/01 10:02:00;;;;;;;1.20;0.93;;;11.70;98.00;;;;;;6131232;23;20426;-70
2021/11/01 10:04:30;;;;;;;1.20;1.00;;;11.70;98.00;;;;;;6183261;23;20405;-70
2021/11/01 10:07:20;;;;;;;1.50;1.20;;;11.70;98.00;;;;;;6183627;23;20467;-70
2021/11/01 10:09:48;;;;;;;1.20;1.00;;;11.70;98.00;;;;;;6183404;23;20406;-70
2021/11/01 10:12:22;;;;;;;1.20;1.00;;;11.70;98.00;;;;;;6183663;23;20464;-70
2021/11/01 10:14:58;;;;;;;1.20;1.00;;;11.80;98.00;;;;;;6182993;23;20876;-70
2021/11/01 10:17:36;;;;;;;1.20;1.00;;;11.70;98.00;;;;;;6183470;23;20396;-70
2021/11/01 10:20:18;;;;;;;1.20;0.90;;;11.70;98.00;;;;;;6183623;23;20503;-70
2021/11/01 10:22:49;;;;;;;1.20;1.00;;;11.70;98.00;;;;;;6183421;23;20458;-70
2021/11/01 10:25:18;;;;;;;1.30;1.20;;;11.80;98.00;;;;;;6183370;23;20421;-70
2021/11/01 10:27:52;;;;;;;1.20;1.00;;;11.80;98.00;;;;;;6183495;23;20458;-70
2021/11/01 10:30:23;;;;;;;1.93;1.40;;;11.80;98.00;;;;;;6183227;23;20402;-70
2021/11/01 10:32:52;;;;;;;1.20;1.00;;;11.90;98.00;;;;;;6182919;23;20464;-70
2021/11/01 10:35:24;;;;;;;1.20;1.00;;;11.80;98.00;;;;;;6183180;23;20504;-70
2021/11/01 10:38:10;;;;;;;1.20;0.90;;;11.80;98.00;;;;;;6182821;23;20412;-70
2021/11/01 10:40:42;;;;;;;1.20;1.00;;;11.70;98.00;;;;;;6182679;23;20791;-70
2021/11/01 10:43:22;;;;;;;1.20;1.00;;;11.60;98.00;;;;;;6183012;23;20442;-70
2021/11/01 10:57:32;;;;;;;1.30;1.00;;;11.60;98.00;;;;;;6183120;23;20432;-70
2021/11/01 11:13:58;;;;;;;1.20;1.00;;;11.30;98.00;;;;;;6182606;23;20749;-70
2021/11/01 11:19:24;;;;;;;1.30;1.10;;;11.40;98.00;;;;;;6154659;23;20489;-70
2021/11/01 11:25:11;;;;;;;1.23;1.07;;;11.30;98.00;;;;;;6182968;23;20400;-72
2021/11/01 11:27:53;;;;;;;1.40;1.10;;;11.30;98.00;;;;;;6183733;23;20402;-72
2021/11/01 11:33:29;;;;;;;1.20;0.93;;;11.20;98.00;;;;;;6183645;23;20396;-72
2021/11/01 11:47:26;;;;;;;1.87;1.37;;;11.30;98.00;;;;;;6183443;23;20424;-70
2021/11/01 11:49:54;;;;;;;1.20;0.90;;;11.40;98.00;;;;;;6182776;23;20399;-70
2021/11/01 11:52:24;;;;;;;1.20;1.00;;;11.50;98.00;;;;;;6183260;23;20444;-70
2021/11/01 11:54:55;;;;;;;1.20;1.10;;;11.70;98.00;;;;;;6183622;23;20405;-70
2021/11/01 11:57:26;;;;;;;1.20;1.00;;;11.80;98.00;;;;;;6183401;23;20404;-70
2021/11/01 11:59:54;;;;;;;1.20;1.00;;;11.80;98.00;;;;;;6183241;23;20525;-69
2021/11/01 12:02:38;;;;;;;1.20;0.97;;;11.90;98.00;;;;;;6183530;23;20800;-70
2021/11/01 12:05:12;;;;;;;1.20;1.00;;;11.80;98.00;;;;;;6183413;23;20482;-70
2021/11/01 12:07:44;;;;;;;1.20;1.00;;;11.70;98.00;;;;;;6183508;23;20442;-69
2021/11/01 12:10:34;;;;;;;1.30;1.30;;;11.80;98.00;;;;;;6193292;23;20432;-69
2021/11/01 12:13:12;;;;;;;1.30;1.20;;;11.70;98.00;;;;;;6183568;23;20766;-69
2021/11/01 12:18:34;;;;;;;1.20;1.00;;;11.50;98.00;;;;;;6183644;23;20477;-70
2021/11/01 12:21:01;;;;;;;1.20;1.10;;;11.50;98.00;;;;;;6183178;23;20430;-70
2021/11/01 12:23:37;;;;;;;1.20;1.00;;;11.50;98.00;;;;;;6133027;23;20946;-70
2021/11/01 12:26:12;;;;;;;1.20;1.00;;;11.40;98.00;;;;;;6183184;23;20431;-70
2021/11/01 12:28:41;;;;;;;1.20;1.10;;;11.40;98.00;;;;;;6183400;23;20479;-71
2021/11/01 12:31:10;;;;;;;1.20;1.00;;;11.50;98.00;;;;;;6183300;23;20448;-70
2021/11/01 12:33:39;;;;;;;1.20;1.00;;;11.50;98.00;;;;;;6156874;23;20412;-70
2021/11/01 12:36:10;;;;;;;1.87;1.53;;;11.50;98.00;;;;;;6184046;23;20427;-69
2021/11/01 12:38:44;;;;;;;1.67;1.40;;;11.50;98.00;;;;;;6183838;23;20408;-70
2021/11/01 12:41:23;;;;;;;1.20;1.00;;;11.50;98.00;;;;;;6184029;23;20920;-70
2021/11/01 12:49:52;;;;;;;1.93;1.27;;;11.60;98.00;;;;;;6184000;23;20418;-69
2021/11/01 12:57:49;;;;;;;1.20;1.00;;;11.80;98.00;;;;;;6184122;23;20394;-69
2021/11/01 13:00:18;;;;;;;1.20;1.00;;;11.80;98.00;;;;;;6185013;23;21116;-69
2021/11/01 13:02:47;;;;;;;1.20;1.00;;;11.80;98.00;;;;;;6186176;23;20680;-69
2021/11/01 13:05:18;;;;;;;1.43;1.17;;;11.80;98.00;;;;;;6159808;23;20425;-70
2021/11/01 13:07:54;;;;;;;3.00;1.60;;;11.80;98.00;;;;;;6186238;23;20700;-70
2021/11/01 13:10:26;;;;;;;1.20;0.93;;;11.80;98.00;;;;;;6186243;23;20399;-70
2021/11/01 13:18:37;;;;;;;1.20;1.10;;;12.90;98.00;;;;;;6185941;23;20450;-69
2021/11/01 13:21:09;;;;;;;1.20;1.10;;;13.40;98.00;;;;;;6185899;23;20443;-69
2021/11/01 13:23:38;;;;;;;1.20;1.00;;;13.40;98.00;;;;;;6186076;23;20436;-69
2021/11/01 13:26:24;;;;;;;1.57;1.17;;;13.40;98.00;;;;;;6186057;23;20400;-67
2021/11/01 13:37:14;;;;;;;1.20;1.00;;;12.70;98.00;;;;;;6186087;23;20481;-68
2021/11/01 13:39:41;;;;;;;1.20;1.00;;;12.50;98.00;;;;;;6185682;23;20458;-68
2021/11/01 13:42:16;;;;;;;1.83;1.70;;;12.60;98.00;;;;;;6185854;23;20417;-68
2021/11/01 13:44:45;;;;;;;1.80;1.70;;;12.50;98.00;;;;;;6185755;23;20480;-68
2021/11/01 13:47:17;;;;;;;2.07;1.20;;;12.40;98.00;;;;;;6185297;23;20493;-68
2021/11/01 13:49:45;;;;;;;1.20;1.10;;;12.20;98.00;;;;;;6185261;23;20427;-68
2021/11/01 13:52:31;;;;;;;1.20;1.10;;;12.30;98.00;;;;;;6185484;23;20402;-69
2021/11/01 13:55:03;;;;;;;1.20;1.00;;;12.20;98.00;;;;;;6185658;23;20399;-68
2021/11/01 13:57:33;;;;;;;1.20;1.07;;;12.20;98.00;;;;;;6185756;23;20473;-68
2021/11/01 14:00:11;;;;;;;1.20;1.07;;;12.20;98.00;;;;;;6185523;23;20430;-68
2021/11/01 14:11:06;;;;;;;1.73;1.20;;;12.00;98.00;;;;;;6185000;23;20976;-68
2021/11/01 14:13:51;;;;;;;1.20;1.00;;;11.90;98.00;;;;;;6185443;23;20456;-68
2021/11/01 14:16:32;;;;;;;1.20;1.00;;;11.80;98.00;;;;;;6185470;23;20397;-68
2021/11/01 14:19:12;;;;;;;1.20;1.00;;;11.80;98.00;;;;;;6185512;23;20476;-68
2021/11/01 14:27:33;;;;;;;2.20;1.30;;;11.60;98.00;;;;;;6174318;23;20420;-68
2021/11/01 14:36:06;;;;;;;1.20;1.00;;;11.60;98.00;;;;;;6184879;23;20445;-68
2021/11/01 15:00:55;;;;;;;1.20;1.00;;;11.70;98.00;;;;;;6173132;23;20427;-69
2021/11/01 15:04:18;;;;;;;1.30;1.10;;;11.80;98.00;;;;;;6184938;23;20424;-68
2021/11/01 15:12:46;;;;;;;1.60;1.37;;;11.50;98.00;;;;;;6184238;23;20426;-68
2021/11/01 15:15:24;;;;;;;1.30;1.30;;;11.50;98.00;;;;;;6184864;23;20458;-69
2021/11/01 15:18:10;;;;;;;1.20;1.00;;;11.50;98.00;;;;;;6184917;23;20393;-69
2021/11/01 15:20:51;;;;;;;1.50;1.23;;;11.60;98.00;;;;;;6162544;23;20511;-69
2021/11/01 15:26:19;;;;;;;1.20;1.10;;;11.80;98.00;;;;;;6182931;23;20485;-68
2021/11/01 15:29:07;;;;;;;1.50;1.30;;;12.10;98.00;;;;;;6184948;23;20444;-69
2021/11/01 15:39:56;;;;;;;1.60;1.50;;;12.10;98.00;;;;;;6184319;23;20410;-68
2021/11/01 16:18:33;;;;;;;1.50;1.37;;;11.70;98.00;;;;;;6154419;23;20878;-69
2021/11/01 16:21:01;;;;;;;1.20;1.00;;;11.70;98.00;;;;;;6154544;23;20508;-69
2021/11/01 16:23:35;;;;;;;1.20;1.20;;;11.50;98.00;;;;;;6154342;23;20405;-69
2021/11/01 16:26:11;;;;;;;1.20;1.00;;;11.50;98.00;;;;;;6154653;23;20491;-69
2021/11/01 16:28:38;;;;;;;1.20;1.10;;;11.50;98.00;;;;;;6154720;23;20475;-69
2021/11/01 16:34:06;;;;;;;1.20;1.00;;;11.40;98.00;;;;;;6100847;23;20438;-69
2021/11/01 16:39:17;;;;;;;1.40;1.10;;;11.10;98.00;;;;;;6151307;23;20417;-68
2021/11/01 16:41:46;;;;;;;1.20;1.00;;;11.10;98.00;;;;;;6154568;23;20490;-69
2021/11/01 16:44:18;;;;;;;1.20;1.00;;;11.00;98.00;;;;;;6154678;23;20408;-68
2021/11/01 16:46:49;;;;;;;1.20;1.00;;;10.90;98.00;;;;;;6166974;23;20432;-69
2021/11/01 16:49:16;;;;;;;1.20;1.03;;;10.80;98.00;;;;;;6183899;23;20518;-68
2021/11/01 16:51:45;;;;;;;1.43;1.40;;;10.70;98.00;;;;;;6184274;23;20407;-69
2021/11/01 16:54:14;;;;;;;1.33;1.10;;;10.70;98.00;;;;;;6184233;23;20408;-68
2021/11/01 16:56:53;;;;;;;1.93;1.10;;;10.60;98.00;;;;;;6184292;23;20462;-68
2021/11/01 16:59:32;;;;;;;3.33;1.57;;;10.60;98.00;;;;;;6184280;23;20399;-69
2021/11/01 17:02:14;;;;;;;1.90;1.03;;;10.70;98.00;;;;;;6183684;23;20457;-69
2021/11/01 17:04:42;;;;;;;1.20;1.00;;;10.60;98.00;;;;;;6184310;23;20462;-68
2021/11/01 17:07:18;;;;;;;1.20;1.00;;;10.80;98.00;;;;;;6193973;23;20922;-68
2021/11/01 17:24:02;;;;;;;1.20;1.00;;;10.70;98.00;;;;;;6162536;23;20416;-68
2021/11/01 17:26:41;;;;;;;1.20;1.00;;;10.70;98.00;;;;;;6183585;23;20404;-68
2021/11/01 17:29:43;;;;;;;1.20;1.00;;;10.70;98.00;;;;;;6183771;23;20878;-68
2021/11/01 17:35:19;;;;;;;1.20;1.00;;;10.80;98.00;;;;;;6183529;23;20397;-68
2021/11/01 17:38:11;;;;;;;1.30;1.17;;;10.70;98.00;;;;;;6183967;23;20398;-68
2021/11/01 18:36:49;;;;;;;1.20;1.00;;;10.30;98.00;;;;;;6163472;23;20857;-68
2021/11/01 18:39:30;;;;;;;1.30;1.20;;;10.20;98.00;;;;;;6185260;23;20726;-68
2021/11/01 18:42:07;;;;;;;1.37;1.07;;;10.20;98.00;;;;;;6185003;23;20428;-68
2021/11/01 18:44:57;;;;;;;1.20;1.00;;;10.10;98.00;;;;;;6185236;23;20406;-68
2021/11/01 18:53:04;;;;;;;1.20;1.00;;;9.90;98.00;;;;;;6185088;23;20400;-68
2021/11/01 18:55:33;;;;;;;3.33;1.43;;;9.90;98.00;;;;;;6159277;23;20808;-69
2021/11/01 18:58:02;;;;;;;1.20;1.00;;;10.10;98.00;;;;;;6182842;23;20403;-70
2021/11/01 19:00:34;;;;;;;1.60;1.40;;;10.30;98.00;;;;;;6183579;23;20434;-69
2021/11/01 19:03:04;;;;;;;1.20;1.10;;;10.10;98.00;;;;;;6183966;23;20432;-70
2021/11/01 19:05:36;;;;;;;1.20;1.00;;;10.10;98.00;;;;;;6183786;23;20399;-69
2021/11/01 19:08:15;;;;;;;2.27;1.37;;;10.00;98.00;;;;;;6184122;23;20782;-71
2021/11/01 20:12:42;;;;;;;1.20;1.10;;;9.00;98.00;;;;;;6145551;23;20412;-68
2021/11/01 21:25:02;;;;;;;1.67;1.20;;;8.20;98.00;;;;;;6195502;23;20518;-68
2021/11/01 21:27:31;;;;;;;1.57;1.40;;;8.20;98.00;;;;;;6185963;23;20422;-68
2021/11/01 21:29:58;;;;;;;2.60;1.37;;;8.20;98.00;;;;;;6185806;23;20405;-68
2021/11/01 21:32:27;;;;;;;1.50;1.20;;;8.00;98.00;;;;;;6185904;23;20398;-67
2021/11/01 21:34:57;;;;;;;1.30;1.20;;;7.90;98.00;;;;;;6185868;23;20517;-68
2021/11/01 21:37:25;;;;;;;1.40;1.10;;;7.80;98.00;;;;;;6160511;23;20438;-68
2021/11/01 21:39:53;;;;;;;1.60;1.20;;;7.80;98.00;;;;;;6185735;23;20477;-68
2021/11/01 21:42:21;;;;;;;3.40;1.20;;;7.70;98.00;;;;;;6185803;23;20440;-68
2021/11/01 21:44:52;;;;;;;1.40;1.23;;;7.70;98.00;;;;;;6185905;23;20403;-68
2021/11/01 21:47:19;;;;;;;1.20;1.10;;;7.90;98.00;;;;;;6185558;23;20448;-68
2021/11/01 21:49:48;;;;;;;1.20;1.10;;;7.70;98.00;;;;;;6185292;23;20415;-67
2021/11/01 21:52:17;;;;;;;1.20;1.00;;;7.60;98.00;;;;;;6185578;23;20453;-68
2021/11/01 21:54:46;;;;;;;1.20;1.00;;;7.50;98.00;;;;;;6185734;23;20404;-68
2021/11/01 21:57:15;;;;;;;1.80;1.20;;;7.50;98.00;;;;;;6185708;23;20462;-68
2021/11/01 21:59:51;;;;;;;1.30;1.30;;;7.50;98.00;;;;;;6185436;23;20449;-68
2021/11/01 22:19:02;;;;;;;1.30;1.10;;;7.40;98.00;;;;;;6185492;23;20727;-68
2021/11/01 22:21:32;;;;;;;3.00;2.33;;;7.60;98.00;;;;;;6185390;23;20439;-67
2021/11/01 22:24:05;;;;;;;1.80;1.30;;;7.60;98.00;;;;;;6185214;23;20451;-67
2021/11/01 22:26:47;;;;;;;1.20;1.00;;;7.40;98.00;;;;;;6185447;23;20434;-67
2021/11/01 22:32:26;;;;;;;1.70;1.20;;;7.20;98.00;;;;;;6162365;23;20448;-67
2021/11/01 22:40:31;;;;;;;1.33;1.30;;;7.20;98.00;;;;;;6195087;23;21101;-68